Time;durP1;ratioP1;P1;durP2;ratioP2;P2;SDS_P1;SDS_P2;PMS_P1;PMS_P2;Temp;Humidity;BMP_temperature;BMP_pressure;BME280_temperature;BME280_humidity;BME280_pressure;Samples;Min_cycle;Max_cycle;Signal;HPM_P1;HPM_P2
2024/03/08 00:02:12;;;;;;;3.78;2.67;;;;;;;;;;5036405;28;21202;-59
2024/03/08 00:04:38;;;;;;;4.82;3.22;;;;;;;;;;5032227;28;20386;-58
2024/03/08 00:07:05;;;;;;;5.32;2.70;;;;;;;;;;5034027;28;20017;-59
2024/03/08 00:09:31;;;;;;;3.00;2.35;;;;;;;;;;5030789;28;20059;-59
2024/03/08 00:11:57;;;;;;;6.38;3.13;;;;;;;;;;5032876;28;20115;-60
2024/03/08 00:14:23;;;;;;;4.03;2.53;;;;;;;;;;5033980;28;20025;-58
2024/03/08 00:16:50;;;;;;;4.88;3.00;;;;;;;;;;5030646;28;20611;-56
2024/03/08 00:19:16;;;;;;;4.18;2.65;;;;;;;;;;5036379;28;20108;-59
2024/03/08 00:21:42;;;;;;;4.32;3.20;;;;;;;;;;5030443;28;20150;-59
2024/03/08 00:24:08;;;;;;;4.07;2.67;;;;;;;;;;5036078;28;20032;-56
2024/03/08 00:26:34;;;;;;;6.53;3.00;;;;;;;;;;5032984;28;20024;-56
2024/03/08 00:29:00;;;;;;;6.35;2.97;;;;;;;;;;5038021;28;20033;-58
2024/03/08 00:31:26;;;;;;;6.20;2.75;;;;;;;;;;5032409;28;20388;-57
2024/03/08 00:33:52;;;;;;;3.80;2.45;;;;;;;;;;5036342;28;20040;-56
2024/03/08 00:36:18;;;;;;;2.97;2.33;;;;;;;;;;5032777;28;20033;-57
2024/03/08 00:38:44;;;;;;;4.68;2.78;;;;;;;;;;5033973;28;20032;-59
2024/03/08 00:41:10;;;;;;;5.20;2.78;;;;;;;;;;5036389;28;20047;-58
2024/03/08 00:43:36;;;;;;;3.85;2.53;;;;;;;;;;5031796;28;20029;-58
2024/03/08 00:46:02;;;;;;;3.72;2.60;;;;;;;;;;5034338;28;20025;-60
2024/03/08 00:48:28;;;;;;;3.85;2.78;;;;;;;;;;5037552;28;20249;-58
2024/03/08 00:50:54;;;;;;;6.63;2.88;;;;;;;;;;5040419;28;20028;-60
2024/03/08 00:53:20;;;;;;;6.95;2.95;;;;;;;;;;5042971;28;20021;-59
2024/03/08 00:55:47;;;;;;;4.95;2.78;;;;;;;;;;5056568;28;20035;-58
2024/03/08 00:58:13;;;;;;;3.80;2.78;;;;;;;;;;5046525;28;20029;-59
2024/03/08 01:00:39;;;;;;;4.47;2.70;;;;;;;;;;5044473;28;20029;-56
2024/03/08 01:03:05;;;;;;;5.85;2.88;;;;;;;;;;5049214;28;20041;-54
2024/03/08 01:05:31;;;;;;;3.67;2.55;;;;;;;;;;5036226;28;20526;-62
2024/03/08 01:07:57;;;;;;;4.03;3.00;;;;;;;;;;5038221;28;20040;-54
2024/03/08 01:10:23;;;;;;;5.15;3.50;;;;;;;;;;5035240;28;20021;-56
2024/03/08 01:12:49;;;;;;;4.22;2.58;;;;;;;;;;5035768;28;20505;-57
2024/03/08 01:15:15;;;;;;;4.75;2.92;;;;;;;;;;5036240;28;20021;-58
2024/03/08 01:17:43;;;;;;;3.70;2.72;;;;;;;;;;5038153;28;20037;-59
2024/03/08 01:20:12;;;;;;;3.63;2.45;;;;;;;;;;5041404;28;20040;-58
2024/03/08 01:22:38;;;;;;;3.67;2.42;;;;;;;;;;5038323;28;20504;-57
2024/03/08 01:25:04;;;;;;;4.60;2.70;;;;;;;;;;5037550;28;20052;-57
2024/03/08 01:27:31;;;;;;;5.07;2.80;;;;;;;;;;5038643;28;20257;-59
2024/03/08 01:29:59;;;;;;;3.53;2.60;;;;;;;;;;5038576;28;20506;-58
2024/03/08 01:32:25;;;;;;;4.63;2.92;;;;;;;;;;5036452;28;20037;-59
2024/03/08 01:34:53;;;;;;;4.30;2.75;;;;;;;;;;5028753;28;20029;-61
2024/03/08 01:37:19;;;;;;;4.32;2.40;;;;;;;;;;5039302;28;20032;-55
2024/03/08 01:39:45;;;;;;;4.57;2.72;;;;;;;;;;5036182;28;20524;-58
2024/03/08 01:42:15;;;;;;;4.05;2.67;;;;;;;;;;5044308;28;20036;-57
2024/03/08 01:44:40;;;;;;;4.80;2.70;;;;;;;;;;5037715;28;20476;-58
2024/03/08 01:47:07;;;;;;;4.57;2.80;;;;;;;;;;5037565;28;20102;-60
2024/03/08 01:49:33;;;;;;;5.72;2.70;;;;;;;;;;5033715;28;20445;-58
2024/03/08 01:51:59;;;;;;;3.67;2.40;;;;;;;;;;5034955;28;20048;-59
2024/03/08 01:54:27;;;;;;;6.00;2.80;;;;;;;;;;5037541;28;20032;-61
2024/03/08 01:56:57;;;;;;;3.35;2.35;;;;;;;;;;5034001;28;20029;-59
2024/03/08 01:59:23;;;;;;;4.60;2.70;;;;;;;;;;5033117;28;20464;-57
2024/03/08 02:01:49;;;;;;;4.43;2.53;;;;;;;;;;5034191;28;20102;-60
2024/03/08 02:04:21;;;;;;;6.05;2.90;;;;;;;;;;5039194;28;20475;-58
2024/03/08 02:06:48;;;;;;;6.53;2.60;;;;;;;;;;5040451;28;20036;-58
2024/03/08 02:09:14;;;;;;;4.43;2.58;;;;;;;;;;5039312;28;20029;-59
2024/03/08 02:11:41;;;;;;;4.60;2.92;;;;;;;;;;5033125;28;20025;-58
2024/03/08 02:14:07;;;;;;;3.38;2.20;;;;;;;;;;5039095;28;20060;-59
2024/03/08 02:16:33;;;;;;;5.53;2.80;;;;;;;;;;5033544;28;20055;-58
2024/03/08 02:19:00;;;;;;;2.78;2.17;;;;;;;;;;5040864;28;20041;-55
2024/03/08 02:21:26;;;;;;;4.03;2.55;;;;;;;;;;5038420;28;20029;-56
2024/03/08 02:23:52;;;;;;;3.45;2.30;;;;;;;;;;5038178;28;20044;-59
2024/03/08 02:26:18;;;;;;;4.53;2.75;;;;;;;;;;5037707;28;20021;-57
2024/03/08 02:28:45;;;;;;;6.63;2.97;;;;;;;;;;5041465;28;20017;-58
2024/03/08 02:31:11;;;;;;;16.42;2.58;;;;;;;;;;5039955;28;20029;-59
2024/03/08 02:33:59;;;;;;;5.65;2.92;;;;;;;;;;5052976;28;20083;-58
2024/03/08 02:36:25;;;;;;;5.97;2.47;;;;;;;;;;5046182;28;20043;-59
2024/03/08 02:38:51;;;;;;;4.30;2.80;;;;;;;;;;5055796;28;20047;-57
2024/03/08 02:41:17;;;;;;;3.42;2.38;;;;;;;;;;5039389;28;20040;-57
2024/03/08 02:43:45;;;;;;;4.20;2.42;;;;;;;;;;5047083;28;20044;-58
2024/03/08 02:46:20;;;;;;;4.38;2.53;;;;;;;;;;5047394;28;20422;-57
2024/03/08 02:48:50;;;;;;;4.43;2.30;;;;;;;;;;5052454;28;20025;-56
2024/03/08 02:51:16;;;;;;;3.65;2.17;;;;;;;;;;5047834;28;20047;-59
2024/03/08 02:53:43;;;;;;;4.80;2.50;;;;;;;;;;5045483;28;20036;-58
2024/03/08 02:56:12;;;;;;;4.82;2.58;;;;;;;;;;5047764;28;20040;-57
2024/03/08 02:58:38;;;;;;;5.38;2.67;;;;;;;;;;5037900;28;20033;-58
2024/03/08 03:01:04;;;;;;;4.22;2.60;;;;;;;;;;5047725;28;20554;-58
2024/03/08 03:03:30;;;;;;;4.32;2.30;;;;;;;;;;5056233;28;20140;-58
2024/03/08 03:05:56;;;;;;;4.78;2.40;;;;;;;;;;5058522;28;20021;-57
2024/03/08 03:08:23;;;;;;;4.25;2.33;;;;;;;;;;5044151;28;20382;-56
2024/03/08 03:10:49;;;;;;;3.90;2.53;;;;;;;;;;5041875;28;20506;-57
2024/03/08 03:13:15;;;;;;;2.55;1.95;;;;;;;;;;5037979;28;20057;-59
2024/03/08 03:15:41;;;;;;;6.07;2.30;;;;;;;;;;5033083;28;20064;-59
2024/03/08 03:18:07;;;;;;;3.88;2.38;;;;;;;;;;5038834;28;20048;-59
2024/03/08 03:20:39;;;;;;;5.07;2.50;;;;;;;;;;5035993;28;20032;-56
2024/03/08 03:23:07;;;;;;;3.97;2.53;;;;;;;;;;5032496;28;20542;-59
2024/03/08 03:25:35;;;;;;;4.72;2.10;;;;;;;;;;5032698;28;20083;-58
2024/03/08 03:28:01;;;;;;;3.42;2.30;;;;;;;;;;5029533;28;20025;-58
2024/03/08 03:30:30;;;;;;;2.88;2.05;;;;;;;;;;5040319;28;20032;-56
2024/03/08 03:33:00;;;;;;;4.45;2.50;;;;;;;;;;5035862;28;20190;-58
2024/03/08 03:35:26;;;;;;;3.40;2.28;;;;;;;;;;5039483;28;20623;-58
2024/03/08 03:38:05;;;;;;;4.55;2.15;;;;;;;;;;5038698;28;20037;-57
2024/03/08 03:40:32;;;;;;;5.35;2.65;;;;;;;;;;5035698;28;20035;-59
2024/03/08 03:42:58;;;;;;;5.05;2.67;;;;;;;;;;5036591;28;20441;-58
2024/03/08 03:45:24;;;;;;;3.80;2.35;;;;;;;;;;5036074;28;20029;-59
2024/03/08 03:47:51;;;;;;;3.45;2.05;;;;;;;;;;5036962;28;20032;-58
2024/03/08 03:50:19;;;;;;;3.47;2.15;;;;;;;;;;5036671;28;20067;-59
2024/03/08 03:52:44;;;;;;;3.58;2.17;;;;;;;;;;5039888;28;20843;-58
2024/03/08 03:55:11;;;;;;;3.50;2.53;;;;;;;;;;5036096;28;20124;-61
2024/03/08 03:57:38;;;;;;;4.93;2.63;;;;;;;;;;5040641;28;20029;-58
2024/03/08 04:00:04;;;;;;;6.30;2.78;;;;;;;;;;5035393;28;20037;-59
2024/03/08 04:02:30;;;;;;;3.47;2.42;;;;;;;;;;5030537;28;20102;-56
2024/03/08 04:04:56;;;;;;;3.30;2.17;;;;;;;;;;5035975;28;20682;-58
2024/03/08 04:07:22;;;;;;;4.55;2.15;;;;;;;;;;5034974;28;20502;-58
2024/03/08 04:09:48;;;;;;;3.15;2.38;;;;;;;;;;5035434;28;20064;-57
2024/03/08 04:12:15;;;;;;;3.72;2.40;;;;;;;;;;5032407;28;20029;-59
2024/03/08 04:14:42;;;;;;;4.35;2.47;;;;;;;;;;5030922;28;20033;-56
2024/03/08 04:17:11;;;;;;;3.40;2.20;;;;;;;;;;5034803;28;20024;-57
2024/03/08 04:19:37;;;;;;;4.00;2.70;;;;;;;;;;5033103;28;20495;-57
2024/03/08 04:22:04;;;;;;;3.90;2.47;;;;;;;;;;5036490;28;20067;-56
2024/03/08 04:24:30;;;;;;;4.10;2.72;;;;;;;;;;5036816;28;20479;-58
2024/03/08 04:26:57;;;;;;;3.80;2.60;;;;;;;;;;5036723;28;20518;-59
2024/03/08 04:29:23;;;;;;;3.72;2.40;;;;;;;;;;5041218;28;20057;-55
2024/03/08 04:31:49;;;;;;;5.03;2.72;;;;;;;;;;5038986;28;20071;-58
2024/03/08 04:34:15;;;;;;;4.72;2.40;;;;;;;;;;5035217;28;20070;-56
2024/03/08 04:36:41;;;;;;;3.60;2.28;;;;;;;;;;5043538;28;20079;-58
2024/03/08 04:39:12;;;;;;;3.03;2.20;;;;;;;;;;5040802;28;20399;-57
2024/03/08 04:41:38;;;;;;;3.50;2.10;;;;;;;;;;5037653;28;20034;-58
2024/03/08 04:44:04;;;;;;;3.10;2.25;;;;;;;;;;5041077;28;20112;-59
2024/03/08 04:46:30;;;;;;;4.65;2.60;;;;;;;;;;5039759;28;20123;-59
2024/03/08 04:48:56;;;;;;;4.07;2.40;;;;;;;;;;5037132;28;20039;-59
2024/03/08 04:51:22;;;;;;;7.63;2.85;;;;;;;;;;5042019;28;20047;-59
2024/03/08 04:53:49;;;;;;;6.20;2.95;;;;;;;;;;5039959;28;20061;-57
2024/03/08 04:56:15;;;;;;;3.40;2.10;;;;;;;;;;5039585;28;20487;-58
2024/03/08 04:58:42;;;;;;;4.50;2.60;;;;;;;;;;5033164;28;20033;-58
2024/03/08 05:01:10;;;;;;;2.10;1.63;;;;;;;;;;5038561;28;20029;-57
2024/03/08 05:03:39;;;;;;;3.83;2.40;;;;;;;;;;5035057;28;20351;-59
2024/03/08 05:06:08;;;;;;;3.30;2.70;;;;;;;;;;5026256;28;20645;-57
2024/03/08 05:12:02;;;;;;;4.00;2.20;;;;;;;;;;5051812;28;20386;-59
2024/03/08 05:20:44;;;;;;;3.47;2.05;;;;;;;;;;5036857;28;20072;-61
2024/03/08 05:24:09;;;;;;;4.22;2.22;;;;;;;;;;5055984;28;20041;-56
2024/03/08 05:36:18;;;;;;;4.45;2.58;;;;;;;;;;5033238;28;20067;-57
2024/03/08 05:39:08;;;;;;;3.08;2.40;;;;;;;;;;5049035;28;20052;-59
2024/03/08 05:48:12;;;;;;;5.13;2.10;;;;;;;;;;5032311;28;20044;-58
2024/03/08 05:54:14;;;;;;;5.13;2.40;;;;;;;;;;5045855;28;20039;-57
2024/03/08 05:57:12;;;;;;;3.22;2.40;;;;;;;;;;5052033;28;20024;-60
2024/03/08 06:03:21;;;;;;;4.13;2.30;;;;;;;;;;5037059;28;20574;-60
2024/03/08 06:06:21;;;;;;;4.53;2.13;;;;;;;;;;5042635;28;20042;-55
2024/03/08 06:08:59;;;;;;;5.90;3.28;;;;;;;;;;5053932;28;20060;-59
2024/03/08 06:14:50;;;;;;;8.63;4.63;;;;;;;;;;5050583;28;20091;-59
2024/03/08 06:20:43;;;;;;;6.15;2.90;;;;;;;;;;5036418;28;20060;-60
2024/03/08 06:26:54;;;;;;;11.43;3.55;;;;;;;;;;5041010;28;20025;-62
2024/03/08 06:29:44;;;;;;;4.40;2.75;;;;;;;;;;5032797;28;20099;-61
2024/03/08 06:37:21;;;;;;;;;;;;;;;;;;4699413;27;10984363;-67
2024/03/08 06:39:50;;;;;;;;;;;;;;;;;;5063790;28;20015;-66
2024/03/08 06:45:08;;;;;;;;;;;;;;;;;;5063066;28;19957;-66
2024/03/08 06:50:20;;;;;;;;;;;;;;;;;;5061249;28;20110;-66
2024/03/08 06:52:53;;;;;;;;;;;;;;;;;;5056566;28;19909;-66
2024/03/08 06:55:25;;;;;;;;;;;;;;;;;;5060164;28;19935;-66
2024/03/08 06:57:57;;;;;;;;;;;;;;;;;;5057100;28;19939;-65
2024/03/08 07:00:28;;;;;;;;;;;;;;;;;;5056722;28;20023;-65
2024/03/08 07:02:54;;;;;;;;;;;;;;;;;;5060158;28;20319;-65
2024/03/08 07:05:21;;;;;;;;;;;;;;;;;;5032464;28;19924;-65
2024/03/08 07:07:49;;;;;;;;;;;;;;;;;;5060112;28;19924;-65
2024/03/08 07:10:15;;;;;;;;;;;;;;;;;;5051323;28;20005;-65
2024/03/08 07:12:42;;;;;;;;;;;;;;;;;;5058164;28;20104;-65
2024/03/08 07:15:13;;;;;;;;;;;;;;;;;;5059253;28;19947;-66
2024/03/08 07:17:39;;;;;;;;;;;;;;;;;;5053736;28;20017;-65
2024/03/08 07:20:10;;;;;;;;;;;;;;;;;;5057177;28;20298;-65
2024/03/08 07:22:38;;;;;;;;;;;;;;;;;;5057018;28;20019;-65
2024/03/08 07:27:36;;;;;;;;;;;;;;;;;;5054166;28;20316;-64
2024/03/08 07:30:02;;;;;;;;;;;;;;;;;;5055870;28;20449;-65
2024/03/08 07:32:29;;;;;;;;;;;;;;;;;;5046400;28;19967;-64
2024/03/08 07:34:56;;;;;;;;;;;;;;;;;;5028822;28;20126;-66
2024/03/08 07:37:23;;;;;;;;;;;;;;;;;;5042212;28;19916;-65
2024/03/08 07:39:49;;;;;;;;;;;;;;;;;;5043326;28;20165;-65
2024/03/08 07:42:16;;;;;;;;;;;;;;;;;;5039917;28;20402;-64
2024/03/08 07:44:42;;;;;;;;;;;;;;;;;;5042209;28;20568;-65
2024/03/08 07:47:09;;;;;;;;;;;;;;;;;;5040190;28;20016;-65
2024/03/08 07:49:35;;;;;;;;;;;;;;;;;;5031392;28;19957;-65
2024/03/08 07:52:01;;;;;;;;;;;;;;;;;;5033221;28;20090;-64
2024/03/08 07:54:27;;;;;;;;;;;;;;;;;;5028708;28;19916;-65
2024/03/08 07:56:53;;;;;;;;;;;;;;;;;;5034561;28;19916;-64
2024/03/08 07:59:20;;;;;;;;;;;;;;;;;;5021707;28;19919;-66
2024/03/08 08:01:47;;;;;;;;;;;;;;;;;;5035348;28;20405;-64
2024/03/08 08:04:14;;;;;;;;;;;;;;;;;;5031359;28;20371;-67
2024/03/08 08:06:43;;;;;;;;;;;;;;;;;;5036705;28;19908;-70
2024/03/08 08:09:15;;;;;;;;;;;;;;;;;;5034069;28;19917;-66
2024/03/08 08:11:44;;;;;;;;;;;;;;;;;;5037583;28;19913;-66
2024/03/08 08:14:16;;;;;;;;;;;;;;;;;;5038191;28;19924;-66
2024/03/08 08:16:42;;;;;;;;;;;;;;;;;;5030613;28;20376;-64
2024/03/08 08:19:08;;;;;;;;;;;;;;;;;;5038574;28;20062;-66
2024/03/08 08:21:36;;;;;;;;;;;;;;;;;;5031097;28;19916;-64
2024/03/08 08:24:03;;;;;;;;;;;;;;;;;;5035994;28;19917;-64
2024/03/08 08:26:29;;;;;;;;;;;;;;;;;;5030498;28;19909;-64
2024/03/08 08:28:55;;;;;;;;;;;;;;;;;;5034678;28;19921;-63
2024/03/08 08:31:21;;;;;;;;;;;;;;;;;;5036965;28;20093;-65
2024/03/08 08:33:52;;;;;;;;;;;;;;;;;;5032986;28;19916;-64
2024/03/08 08:36:18;;;;;;;;;;;;;;;;;;5034056;28;19928;-64
2024/03/08 08:38:44;;;;;;;;;;;;;;;;;;5031593;28;20369;-64
2024/03/08 08:41:11;;;;;;;;;;;;;;;;;;5034864;28;20200;-64
2024/03/08 08:43:39;;;;;;;;;;;;;;;;;;5033735;28;19917;-64
2024/03/08 08:46:05;;;;;;;;;;;;;;;;;;5034109;28;19920;-64
2024/03/08 08:48:31;;;;;;;;;;;;;;;;;;5035888;28;19913;-63
2024/03/08 08:50:57;;;;;;;;;;;;;;;;;;5015920;28;19920;-64
2024/03/08 08:53:35;;;;;;;;;;;;;;;;;;5018464;28;19952;-65
2024/03/08 08:58:49;;;;;;;;;;;;;;;;;;5044990;28;19976;-65
2024/03/08 09:01:38;;;;;;;;;;;;;;;;;;5045644;28;20038;-65
2024/03/08 09:04:25;;;;;;;;;;;;;;;;;;5050511;28;19935;-64
2024/03/08 09:07:20;;;;;;;;;;;;;;;;;;5017891;28;19909;-64
2024/03/08 09:13:06;;;;;;;;;;;;;;;;;;5045647;28;19928;-65
2024/03/08 09:18:38;;;;;;;;;;;;;;;;;;5050242;28;19927;-64
2024/03/08 09:21:40;;;;;;;;;;;;;;;;;;5051024;28;20362;-64
2024/03/08 09:32:39;;;;;;;;;;;;;;;;;;5047715;28;19923;-64
2024/03/08 09:38:12;;;;;;;;;;;;;;;;;;5041477;28;20015;-65
2024/03/08 09:40:48;;;;;;;;;;;;;;;;;;5045177;28;19913;-65
2024/03/08 09:54:24;;;;;;;;;;;;;;;;;;5050071;28;20390;-61
2024/03/08 10:10:52;;;;;;;;;;;;;;;;;;5052805;28;20010;-64
2024/03/08 10:21:41;;;;;;;;;;;;;;;;;;5039514;28;19936;-63
2024/03/08 10:35:14;;;;;;;;;;;;;;;;;;5170352;22;19928;-62
2024/03/08 10:46:05;;;;;;;;;;;;;;;;;;5028498;28;20275;-63
2024/03/08 10:48:38;;;;;;;;;;;;;;;;;;5022854;28;19917;-64
2024/03/08 10:51:20;;;;;;;;;;;;;;;;;;4991588;28;19909;-63
2024/03/08 10:56:50;;;;;;;;;;;;;;;;;;5030051;28;19925;-63
2024/03/08 10:59:34;;;;;;;;;;;;;;;;;;4990841;28;19917;-63
2024/03/08 11:02:20;;;;;;;;;;;;;;;;;;5011659;28;19906;-63
2024/03/08 11:04:52;;;;;;;;;;;;;;;;;;4995214;28;19913;-63
2024/03/08 11:10:15;;;;;;;;;;;;;;;;;;5030991;28;19964;-65
2024/03/08 11:21:39;;;;;;;;;;;;;;;;;;5021732;28;19956;-68
2024/03/08 11:37:56;;;;;;;;;;;;;;;;;;4978581;28;19921;-62
2024/03/08 11:46:12;;;;;;;;;;;;;;;;;;4975646;28;19925;-61
2024/03/08 11:51:42;;;;;;;;;;;;;;;;;;4975767;28;20017;-63
2024/03/08 11:54:14;;;;;;;;;;;;;;;;;;4974677;28;19973;-62
2024/03/08 12:05:16;;;;;;;;;;;;;;;;;;4974362;28;20008;-63
2024/03/08 12:24:21;;;;;;;;;;;;;;;;;;4975314;28;20304;-66
2024/03/08 12:27:05;;;;;;;;;;;;;;;;;;4986860;28;19930;-68
2024/03/08 12:35:13;;;;;;;;;;;;;;;;;;5053843;28;19941;-68
2024/03/08 12:43:21;;;;;;;;;;;;;;;;;;5046278;28;19916;-67
2024/03/08 12:54:23;;;;;;;;;;;;;;;;;;5061684;28;19924;-66
2024/03/08 13:05:00;;;;;;;;;;;;;;;;;;5050764;28;20006;-64
2024/03/08 13:07:31;;;;;;;;;;;;;;;;;;5043702;28;19920;-69
2024/03/08 13:12:44;;;;;;;;;;;;;;;;;;5045234;28;19924;-70
2024/03/08 13:17:59;;;;;;;;;;;;;;;;;;5033020;28;20004;-61
2024/03/08 13:31:42;;;;;;;;;;;;;;;;;;4977159;28;19937;-62
2024/03/08 13:34:11;;;;;;;;;;;;;;;;;;4962333;28;20009;-62
2024/03/08 13:36:42;;;;;;;;;;;;;;;;;;4973478;28;19925;-62
2024/03/08 13:39:15;;;;;;;;;;;;;;;;;;4999370;28;19917;-63
2024/03/08 13:49:56;;;;;;;;;;;;;;;;;;5027732;28;19924;-63
2024/03/08 14:06:12;;;;;;;;;;;;;;;;;;5024356;28;19991;-61
2024/03/08 14:11:25;;;;;;;;;;;;;;;;;;5029272;28;19923;-66
2024/03/08 14:22:31;;;;;;;;;;;;;;;;;;5029648;28;19920;-68
2024/03/08 14:39:04;;;;;;;;;;;;;;;;;;5012192;28;20009;-65
2024/03/08 14:52:34;;;;;;;;;;;;;;;;;;5031117;28;20378;-67
2024/03/08 15:03:49;;;;;;;;;;;;;;;;;;5015672;28;19963;-70
2024/03/08 15:06:24;;;;;;;;;;;;;;;;;;5029279;28;19917;-73
2024/03/08 15:09:11;;;;;;;;;;;;;;;;;;5029089;28;19913;-71
2024/03/08 15:14:24;;;;;;;;;;;;;;;;;;5031714;28;19955;-62
2024/03/08 15:16:52;;;;;;;;;;;;;;;;;;5012303;28;19921;-60
2024/03/08 15:22:06;;;;;;;;;;;;;;;;;;5032170;28;19920;-70
2024/03/08 15:24:51;;;;;;;;;;;;;;;;;;5027704;28;19992;-66
2024/03/08 15:27:29;;;;;;;;;;;;;;;;;;5009105;28;20000;-68
2024/03/08 15:32:44;;;;;;;;;;;;;;;;;;5030419;28;19919;-68
2024/03/08 15:35:16;;;;;;;;;;;;;;;;;;5029805;28;19913;-68
2024/03/08 15:40:34;;;;;;;;;;;;;;;;;;5035585;28;20443;-66
2024/03/08 15:54:21;;;;;;;;;;;;;;;;;;5033863;28;19963;-66
2024/03/08 16:02:19;;;;;;;;;;;;;;;;;;5015562;28;20005;-67
2024/03/08 16:05:14;;;;;;;;;;;;;;;;;;4897737;29;19911;-67
2024/03/08 16:10:56;;;;;;;;;;;;;;;;;;4915248;29;19922;-67
2024/03/08 16:13:39;;;;;;;;;;;;;;;;;;4915627;29;19966;-67
2024/03/08 16:33:01;;;;;;;;;;;;;;;;;;4995668;28;19960;-65
2024/03/08 16:41:13;;;;;;;;;;;;;;;;;;4987667;28;19933;-67
2024/03/08 16:52:14;;;;;;;;;;;;;;;;;;4980929;28;20017;-68
2024/03/08 16:54:40;;;;;;;;;;;;;;;;;;4970200;28;19906;-67
2024/03/08 16:57:08;;;;;;;;;;;;;;;;;;4965687;28;19983;-65
2024/03/08 16:59:34;;;;;;;;;;;;;;;;;;4966876;28;20004;-68
2024/03/08 17:02:00;;;;;;;;;;;;;;;;;;4969161;28;20507;-67
2024/03/08 17:04:28;;;;;;;;;;;;;;;;;;4978915;28;19922;-68
2024/03/08 17:06:56;;;;;;;;;;;;;;;;;;4976891;28;20499;-67
2024/03/08 17:09:38;;;;;;;;;;;;;;;;;;4978565;28;19914;-68
2024/03/08 17:12:06;;;;;;;;;;;;;;;;;;4982719;28;19914;-66
2024/03/08 17:14:37;;;;;;;;;;;;;;;;;;4982371;28;19914;-67
2024/03/08 17:17:13;;;;;;;;;;;;;;;;;;4983128;28;19925;-63
2024/03/08 17:19:41;;;;;;;;;;;;;;;;;;4978486;28;19920;-65
2024/03/08 17:22:09;;;;;;;;;;;;;;;;;;4981323;28;19997;-65
2024/03/08 17:24:35;;;;;;;;;;;;;;;;;;4978689;28;19914;-67
2024/03/08 17:27:01;;;;;;;;;;;;;;;;;;4974467;28;20012;-67
2024/03/08 17:29:40;;;;;;;;;;;;;;;;;;4979534;28;19914;-67
2024/03/08 17:32:07;;;;;;;;;;;;;;;;;;4962794;28;20068;-67
2024/03/08 17:34:35;;;;;;;;;;;;;;;;;;4971596;28;19913;-67
2024/03/08 17:37:01;;;;;;;;;;;;;;;;;;4968864;28;20386;-68
2024/03/08 17:39:29;;;;;;;;;;;;;;;;;;4958172;28;20379;-67
2024/03/08 17:41:58;;;;;;;;;;;;;;;;;;5016420;28;19952;-66
2024/03/08 17:44:23;;;;;;;;;;;;;;;;;;5011607;28;19913;-68
2024/03/08 17:46:50;;;;;;;;;;;;;;;;;;5011751;28;19948;-68
2024/03/08 17:49:16;;;;;;;;;;;;;;;;;;5015131;28;20074;-67
2024/03/08 17:51:42;;;;;;;;;;;;;;;;;;5014704;28;19913;-67
2024/03/08 17:54:13;;;;;;;;;;;;;;;;;;5017973;28;19920;-67
2024/03/08 17:56:39;;;;;;;;;;;;;;;;;;5015899;28;19917;-67
2024/03/08 17:59:07;;;;;;;;;;;;;;;;;;5017404;28;20311;-67
2024/03/08 18:01:33;;;;;;;;;;;;;;;;;;5015847;28;20361;-67
2024/03/08 18:04:01;;;;;;;;;;;;;;;;;;5017067;28;20395;-66
2024/03/08 18:06:27;;;;;;;;;;;;;;;;;;5015860;28;20379;-66
2024/03/08 18:08:53;;;;;;;;;;;;;;;;;;5021648;28;19925;-67
2024/03/08 18:11:22;;;;;;;;;;;;;;;;;;5015187;28;19940;-66
2024/03/08 18:13:48;;;;;;;;;;;;;;;;;;5017813;28;19913;-66
2024/03/08 18:16:14;;;;;;;;;;;;;;;;;;5016862;28;20261;-66
2024/03/08 18:18:40;;;;;;;;;;;;;;;;;;5016649;28;20055;-66
2024/03/08 18:21:28;;;;;;;;;;;;;;;;;;5016483;28;20406;-66
2024/03/08 18:23:52;;;;;;;;;;;;;;;;;;5012572;28;19953;-66
2024/03/08 18:26:18;;;;;;;;;;;;;;;;;;5015445;28;19924;-67
2024/03/08 18:28:45;;;;;;;;;;;;;;;;;;5014110;28;19917;-65
2024/03/08 18:31:12;;;;;;;;;;;;;;;;;;5014470;28;19928;-65
2024/03/08 18:33:38;;;;;;;;;;;;;;;;;;5012707;28;19909;-67
2024/03/08 18:36:06;;;;;;;;;;;;;;;;;;5013495;28;19921;-66
2024/03/08 18:38:32;;;;;;;;;;;;;;;;;;5016453;28;20528;-68
2024/03/08 18:41:00;;;;;;;;;;;;;;;;;;5014459;28;19921;-68
2024/03/08 18:43:27;;;;;;;;;;;;;;;;;;5008408;28;19921;-67
2024/03/08 18:45:53;;;;;;;;;;;;;;;;;;5016243;28;20374;-67
2024/03/08 18:48:20;;;;;;;;;;;;;;;;;;5016508;28;19940;-68
2024/03/08 18:50:46;;;;;;;;;;;;;;;;;;5015310;28;20008;-67
2024/03/08 18:53:12;;;;;;;;;;;;;;;;;;5016891;28;20602;-68
2024/03/08 18:55:38;;;;;;;;;;;;;;;;;;5015967;28;19923;-67
2024/03/08 18:58:03;;;;;;;;;;;;;;;;;;5014709;28;19921;-66
2024/03/08 19:00:34;;;;;;;;;;;;;;;;;;5015158;28;19909;-70
2024/03/08 19:03:00;;;;;;;;;;;;;;;;;;5019350;28;20388;-68
2024/03/08 19:05:26;;;;;;;;;;;;;;;;;;5014077;28;19917;-69
2024/03/08 19:07:52;;;;;;;;;;;;;;;;;;5018438;28;19936;-69
2024/03/08 19:10:21;;;;;;;;;;;;;;;;;;5013408;28;20315;-68
2024/03/08 19:12:47;;;;;;;;;;;;;;;;;;5008058;28;19913;-68
2024/03/08 19:15:15;;;;;;;;;;;;;;;;;;5007763;28;19927;-68
2024/03/08 19:17:41;;;;;;;;;;;;;;;;;;5002873;28;19921;-68
2024/03/08 19:20:13;;;;;;;;;;;;;;;;;;5003596;28;19943;-68
2024/03/08 19:22:39;;;;;;;;;;;;;;;;;;5015488;28;19925;-67
2024/03/08 19:25:06;;;;;;;;;;;;;;;;;;5014883;28;19921;-69
2024/03/08 19:27:32;;;;;;;;;;;;;;;;;;5015540;28;19910;-67
2024/03/08 19:29:59;;;;;;;;;;;;;;;;;;5014126;28;20015;-66
2024/03/08 19:32:26;;;;;;;;;;;;;;;;;;5011624;28;19987;-68
2024/03/08 19:34:51;;;;;;;;;;;;;;;;;;5013002;28;19924;-68
2024/03/08 19:37:19;;;;;;;;;;;;;;;;;;5012214;28;19917;-68
2024/03/08 19:39:45;;;;;;;;;;;;;;;;;;5015968;28;20486;-68
2024/03/08 19:42:12;;;;;;;;;;;;;;;;;;5012659;28;20012;-68
2024/03/08 19:44:38;;;;;;;;;;;;;;;;;;5016916;28;19956;-68
2024/03/08 19:47:05;;;;;;;;;;;;;;;;;;5017581;28;19913;-68
2024/03/08 19:49:32;;;;;;;;;;;;;;;;;;5018649;28;19960;-68
2024/03/08 19:51:59;;;;;;;;;;;;;;;;;;5016754;28;19995;-68
2024/03/08 19:54:25;;;;;;;;;;;;;;;;;;5016900;28;19924;-68
2024/03/08 19:56:52;;;;;;;;;;;;;;;;;;5014878;28;19925;-68
2024/03/08 19:59:19;;;;;;;;;;;;;;;;;;4998740;28;20589;-66
2024/03/08 20:01:44;;;;;;;;;;;;;;;;;;5016580;28;20343;-69
2024/03/08 20:04:12;;;;;;;;;;;;;;;;;;5014817;28;20059;-68
2024/03/08 20:06:45;;;;;;;;;;;;;;;;;;5019843;28;19913;-67
2024/03/08 20:09:11;;;;;;;;;;;;;;;;;;5017165;28;19932;-68
2024/03/08 20:11:38;;;;;;;;;;;;;;;;;;5017639;28;19917;-72
2024/03/08 20:14:05;;;;;;;;;;;;;;;;;;5020063;28;19913;-69
2024/03/08 20:16:31;;;;;;;;;;;;;;;;;;5020197;28;19928;-69
2024/03/08 20:19:02;;;;;;;;;;;;;;;;;;5016684;28;20016;-69
2024/03/08 20:21:27;;;;;;;;;;;;;;;;;;5019272;28;19909;-68
2024/03/08 20:23:53;;;;;;;;;;;;;;;;;;5009732;28;20447;-69
2024/03/08 20:26:22;;;;;;;;;;;;;;;;;;5015399;28;19983;-69
2024/03/08 20:28:51;;;;;;;;;;;;;;;;;;5019598;28;19920;-69
2024/03/08 20:31:16;;;;;;;;;;;;;;;;;;5012527;28;20408;-69
2024/03/08 20:33:43;;;;;;;;;;;;;;;;;;5016197;28;20008;-69
2024/03/08 20:36:10;;;;;;;;;;;;;;;;;;5017597;28;19921;-68
2024/03/08 20:38:36;;;;;;;;;;;;;;;;;;5018202;28;19909;-68
2024/03/08 20:41:02;;;;;;;;;;;;;;;;;;5018942;28;19932;-68
2024/03/08 20:43:29;;;;;;;;;;;;;;;;;;5020209;28;19913;-68
2024/03/08 20:45:55;;;;;;;;;;;;;;;;;;5000549;28;20505;-68
2024/03/08 20:48:21;;;;;;;;;;;;;;;;;;5021264;28;20004;-64
2024/03/08 20:50:48;;;;;;;;;;;;;;;;;;5018444;28;20020;-64
2024/03/08 20:53:14;;;;;;;;;;;;;;;;;;5019777;28;19967;-65
2024/03/08 20:55:41;;;;;;;;;;;;;;;;;;5017796;28;20336;-69
2024/03/08 20:58:07;;;;;;;;;;;;;;;;;;5018849;28;19913;-66
2024/03/08 21:03:05;;;;;;;;;;;;;;;;;;5016293;28;20287;-67
2024/03/08 21:05:31;;;;;;;;;;;;;;;;;;5018324;28;19913;-66
2024/03/08 21:07:57;;;;;;;;;;;;;;;;;;5018600;28;20096;-65
2024/03/08 23:43:33;;;;;;;;;;;;;;;;;;;;;
